createdAt,value
2022-12-24T00:03:03.439Z,99340.48
2022-12-24T00:05:50.449Z,99338.48
2022-12-24T00:08:37.272Z,99343.11
2022-12-24T00:11:23.906Z,99343.63
2022-12-24T00:14:10.937Z,99339.83
2022-12-24T00:16:57.468Z,99342.49
2022-12-24T00:19:44.145Z,99337.98
2022-12-24T00:22:31.028Z,99335.59
2022-12-24T00:25:18.223Z,99328.06
2022-12-24T00:28:29.313Z,99326.27
2022-12-24T00:31:19.125Z,99329.00
2022-12-24T00:34:05.913Z,99330.93
2022-12-24T00:36:52.804Z,99335.14
2022-12-24T00:39:39.460Z,99338.11
2022-12-24T00:42:26.116Z,99340.64
2022-12-24T00:45:13.111Z,99344.08
2022-12-24T00:47:59.527Z,99340.23
2022-12-24T00:50:46.484Z,99331.20
2022-12-24T00:53:33.364Z,99332.44
2022-12-24T00:56:20.418Z,99339.68
2022-12-24T00:59:06.748Z,99341.21
2022-12-24T01:01:53.608Z,99342.66
2022-12-24T01:04:58.860Z,99336.86
2022-12-24T01:07:45.642Z,99333.83
2022-12-24T01:10:33.101Z,99331.09
2022-12-24T01:13:21.392Z,99325.85
2022-12-24T01:16:18.652Z,99325.64
2022-12-24T01:19:05.297Z,99327.96
2022-12-24T01:21:53.722Z,99325.15
2022-12-24T01:24:43.453Z,99326.00
2022-12-24T01:27:30.034Z,99324.13
2022-12-24T01:30:18.205Z,99326.05
2022-12-24T01:33:04.664Z,99326.02
2022-12-24T01:35:56.230Z,99324.24
2022-12-24T01:38:43.042Z,99320.63
2022-12-24T01:41:50.297Z,99321.53
2022-12-24T01:44:42.711Z,99318.68
2022-12-24T01:47:47.946Z,99320.14
2022-12-24T01:50:35.392Z,99324.92
2022-12-24T01:53:22.383Z,99329.41
2022-12-24T01:56:11.855Z,99332.17
2022-12-24T01:59:14.914Z,99332.23
2022-12-24T02:02:02.502Z,99332.34
2022-12-24T02:05:14.459Z,99334.21
2022-12-24T02:08:03.838Z,99335.11
2022-12-24T02:10:50.894Z,99341.81
2022-12-24T02:13:37.523Z,99343.33
2022-12-24T02:16:27.122Z,99347.77
2022-12-24T02:19:51.150Z,99345.73
2022-12-24T02:22:37.539Z,99350.74
2022-12-24T02:26:00.226Z,99347.28
2022-12-24T02:29:16.046Z,99349.55
2022-12-24T02:32:09.903Z,99347.14
2022-12-24T02:35:23.474Z,99348.56
2022-12-24T02:38:24.496Z,99343.90
2022-12-24T02:41:22.765Z,99343.23
2022-12-24T02:44:08.923Z,99343.83
2022-12-24T02:46:56.320Z,99346.92
2022-12-24T02:49:45.328Z,99350.58
2022-12-24T02:52:37.755Z,99345.38
2022-12-24T02:55:31.846Z,99345.10
2022-12-24T02:58:51.161Z,99341.25
2022-12-24T03:01:51.819Z,99338.23
2022-12-24T03:05:08.797Z,99336.34
2022-12-24T03:08:08.192Z,99344.09
2022-12-24T03:10:59.701Z,99345.79
2022-12-24T03:13:46.586Z,99348.48
2022-12-24T03:16:32.230Z,99346.13
2022-12-24T03:19:21.331Z,99348.05
2022-12-24T03:22:10.024Z,99350.91
2022-12-24T03:24:55.719Z,99354.56
2022-12-24T03:27:43.225Z,99355.77
2022-12-24T03:30:28.580Z,99356.31
2022-12-24T03:33:16.756Z,99353.71
2022-12-24T03:36:18.440Z,99350.41
2022-12-24T03:39:07.283Z,99349.77
2022-12-24T03:41:53.438Z,99352.04
2022-12-24T03:44:40.194Z,99354.38
2022-12-24T03:47:26.808Z,99354.06
2022-12-24T03:50:13.573Z,99351.03
2022-12-24T03:53:00.510Z,99350.13
2022-12-24T03:55:48.390Z,99352.67
2022-12-24T03:58:35.807Z,99355.73
2022-12-24T04:01:22.699Z,99358.99
2022-12-24T04:04:09.115Z,99361.86
2022-12-24T04:06:56.052Z,99363.96
2022-12-24T04:09:42.943Z,99359.79
2022-12-24T04:12:29.764Z,99365.14
2022-12-24T04:15:16.558Z,99362.10
2022-12-24T04:18:03.175Z,99358.90
2022-12-24T04:20:49.667Z,99358.13
2022-12-24T04:23:39.179Z,99359.45
2022-12-24T04:26:25.797Z,99358.03
2022-12-24T04:29:13.004Z,99358.18
2022-12-24T04:32:02.605Z,99352.60
2022-12-24T04:34:50.173Z,99349.70
2022-12-24T04:37:36.833Z,99348.13
2022-12-24T04:40:24.235Z,99351.42
2022-12-24T04:43:11.629Z,99349.39
2022-12-24T04:46:08.716Z,99347.39
2022-12-24T04:48:55.595Z,99346.06
2022-12-24T04:55:56.416Z,99355.41
2022-12-24T04:58:43.013Z,99360.73
2022-12-24T05:02:09.688Z,99363.64
2022-12-24T05:04:56.824Z,99367.36
2022-12-24T05:07:42.436Z,99370.89
2022-12-24T05:10:27.953Z,99373.79
2022-12-24T05:13:13.121Z,99374.05
2022-12-24T05:15:58.411Z,99373.52
2022-12-24T05:18:43.803Z,99375.98
2022-12-24T05:21:29.160Z,99376.88
2022-12-24T05:24:33.134Z,99375.02
2022-12-24T05:27:18.462Z,99372.59
2022-12-24T05:30:06.360Z,99368.05
2022-12-24T05:32:51.423Z,99368.95
2022-12-24T05:35:37.848Z,99370.63
2022-12-24T05:38:23.416Z,99374.06
2022-12-24T05:41:09.802Z,99374.65
2022-12-24T05:43:55.929Z,99375.23
2022-12-24T05:46:52.143Z,99382.89
2022-12-24T05:49:38.936Z,99386.85
2022-12-24T05:52:26.213Z,99383.21
2022-12-24T05:55:12.837Z,99387.86
2022-12-24T05:57:59.816Z,99385.35
2022-12-24T06:00:46.459Z,99388.64
2022-12-24T06:03:34.362Z,99388.05
2022-12-24T06:06:23.615Z,99390.92
2022-12-24T06:09:10.260Z,99388.77
2022-12-24T06:11:57.017Z,99388.20
2022-12-24T06:14:43.535Z,99391.65
2022-12-24T06:17:30.430Z,99393.86
2022-12-24T06:20:17.296Z,99404.03
2022-12-24T06:23:03.928Z,99404.00
2022-12-24T06:25:51.159Z,99400.65
2022-12-24T06:28:39.160Z,99405.19
2022-12-24T06:31:25.471Z,99412.90
2022-12-24T06:34:24.808Z,99413.35
2022-12-24T06:37:22.281Z,99414.46
2022-12-24T06:40:09.787Z,99415.77
2022-12-24T06:42:56.263Z,99419.28
2022-12-24T06:45:48.045Z,99419.00
2022-12-24T06:48:34.660Z,99420.53
2022-12-24T06:51:23.240Z,99418.66
2022-12-24T06:54:12.931Z,99427.80
2022-12-24T06:56:59.393Z,99426.48
2022-12-24T06:59:46.377Z,99428.23
2022-12-24T07:02:44.446Z,99428.20
2022-12-24T07:05:32.030Z,99429.84
2022-12-24T07:08:20.481Z,99429.81
2022-12-24T07:11:13.707Z,99436.78
2022-12-24T07:17:26.718Z,99440.19
2022-12-24T07:23:19.221Z,99453.24
2022-12-24T07:26:39.655Z,99452.71
2022-12-24T07:40:58.019Z,99465.42
2022-12-24T07:43:43.750Z,99473.75
2022-12-24T07:46:29.970Z,99476.70
2022-12-24T07:49:21.084Z,99479.69
2022-12-24T07:54:14.120Z,99482.89
2022-12-24T07:57:05.105Z,99488.76
2022-12-24T07:59:54.879Z,99489.31
2022-12-24T08:02:47.325Z,99489.77
2022-12-24T08:08:53.039Z,99493.37
2022-12-24T08:17:57.048Z,99498.30
2022-12-24T08:20:46.445Z,99498.14
2022-12-24T08:23:33.882Z,99495.73
2022-12-24T08:26:22.336Z,99497.77
2022-12-24T08:29:13.087Z,99500.12
2022-12-24T08:31:59.985Z,99504.23
2022-12-24T08:34:46.730Z,99509.91
2022-12-24T08:37:33.844Z,99510.64
2022-12-24T08:40:20.924Z,99517.84
2022-12-24T08:43:07.865Z,99520.03
2022-12-24T08:45:55.074Z,99522.47
2022-12-24T08:48:41.951Z,99525.81
2022-12-24T08:51:29.861Z,99529.70
2022-12-24T08:54:16.410Z,99536.94
2022-12-24T08:57:03.907Z,99541.36
2022-12-24T08:59:50.981Z,99544.77
2022-12-24T09:02:38.249Z,99543.09
2022-12-24T09:05:26.213Z,99543.27
2022-12-24T09:08:13.251Z,99543.10
2022-12-24T09:11:12.719Z,99543.65
2022-12-24T09:13:59.540Z,99541.29
2022-12-24T09:16:46.652Z,99543.58
2022-12-24T09:19:33.892Z,99550.41
2022-12-24T09:22:21.679Z,99556.95
2022-12-24T09:25:10.783Z,99559.27
2022-12-24T09:27:57.520Z,99554.19
2022-12-24T09:30:44.384Z,99558.51
2022-12-24T09:33:35.150Z,99560.10
2022-12-24T09:36:23.452Z,99564.55
2022-12-24T09:39:10.332Z,99569.66
2022-12-24T09:42:03.751Z,99573.66
2022-12-24T09:45:01.063Z,99573.79
2022-12-24T09:48:00.784Z,99572.98
2022-12-24T09:50:56.986Z,99577.36
2022-12-24T09:53:51.692Z,99576.14
2022-12-24T09:56:44.031Z,99581.49
2022-12-24T09:59:42.208Z,99581.29
2022-12-24T10:02:28.787Z,99578.49
2022-12-24T10:05:17.683Z,99580.58
2022-12-24T10:08:10.834Z,99587.14
2022-12-24T10:11:24.581Z,99592.60
2022-12-24T10:14:34.015Z,99600.96
2022-12-24T10:17:45.401Z,99603.36
2022-12-24T10:20:53.728Z,99605.14
2022-12-24T10:23:54.203Z,99611.66
2022-12-24T10:26:52.966Z,99612.48
2022-12-24T10:29:49.562Z,99617.11
2022-12-24T10:32:36.191Z,99616.26
2022-12-24T10:35:29.217Z,99613.69
2022-12-24T10:38:17.366Z,99610.95
2022-12-24T10:41:04.040Z,99614.73
2022-12-24T10:43:51.315Z,99620.77
2022-12-24T10:46:39.621Z,99625.08
2022-12-24T10:49:36.771Z,99631.02
2022-12-24T10:52:31.285Z,99633.98
2022-12-24T10:55:17.581Z,99641.02
2022-12-24T10:58:15.482Z,99639.25
2022-12-24T11:01:04.100Z,99643.89
2022-12-24T11:04:17.927Z,99645.21
2022-12-24T11:07:13.280Z,99641.40
2022-12-24T11:10:03.839Z,99650.04
2022-12-24T11:13:12.800Z,99649.27
2022-12-24T11:16:19.189Z,99654.87
2022-12-24T11:19:18.609Z,99653.00
2022-12-24T11:22:18.402Z,99656.61
2022-12-24T11:25:08.066Z,99653.65
2022-12-24T11:27:57.103Z,99658.40
2022-12-24T11:31:00.475Z,99659.86
2022-12-24T11:33:52.809Z,99665.98
2022-12-24T11:36:39.516Z,99666.95
2022-12-24T11:43:51.009Z,99673.77
2022-12-24T11:46:40.775Z,99678.02
2022-12-24T11:54:08.268Z,99686.54
2022-12-24T11:56:59.151Z,99689.39
2022-12-24T11:59:48.553Z,99695.78
2022-12-24T12:02:48.251Z,99703.27
2022-12-24T12:05:35.734Z,99709.38
2022-12-24T12:08:23.497Z,99711.96
2022-12-24T12:11:14.213Z,99717.82
2022-12-24T12:14:03.322Z,99716.54
2022-12-24T12:17:07.748Z,99717.66
2022-12-24T12:20:04.146Z,99719.81
2022-12-24T12:23:02.653Z,99721.41
2022-12-24T12:25:59.595Z,99727.42
2022-12-24T12:29:01.385Z,99733.24
2022-12-24T12:31:53.292Z,99739.30
2022-12-24T12:35:15.911Z,99746.10
2022-12-24T12:38:07.626Z,99753.67
2022-12-24T12:41:13.273Z,99760.96
2022-12-24T12:44:24.591Z,99765.46
2022-12-24T12:47:13.856Z,99772.39
2022-12-24T12:50:26.161Z,99780.54
2022-12-24T12:53:35.789Z,99784.34
2022-12-24T12:56:31.584Z,99787.98
2022-12-24T12:59:21.930Z,99789.06
2022-12-24T13:02:30.236Z,99798.54
2022-12-24T13:05:49.673Z,99800.89
2022-12-24T13:09:01.490Z,99805.91
2022-12-24T13:12:06.079Z,99809.09
2022-12-24T13:15:20.738Z,99812.38
2022-12-24T13:18:10.458Z,99815.46
2022-12-24T13:20:56.956Z,99821.54
2022-12-24T13:23:44.444Z,99825.59
2022-12-24T13:26:31.039Z,99830.02
2022-12-24T13:29:31.397Z,99838.81
2022-12-24T13:32:21.361Z,99839.21
2022-12-24T13:35:21.018Z,99842.02
2022-12-24T13:38:28.259Z,99847.43
2022-12-24T13:41:41.052Z,99853.64
2022-12-24T13:44:33.380Z,99856.28
2022-12-24T13:47:25.436Z,99858.40
2022-12-24T13:50:39.752Z,99860.04
2022-12-24T13:53:37.452Z,99865.92
2022-12-24T13:56:30.775Z,99872.57
2022-12-24T13:59:46.889Z,99877.35
2022-12-24T14:02:39.122Z,99885.73
2022-12-24T14:05:39.321Z,99890.85
2022-12-24T14:08:32.320Z,99895.06
2022-12-24T14:11:22.726Z,99901.58
2022-12-24T14:14:30.823Z,99905.40
2022-12-24T14:17:27.089Z,99911.46
2022-12-24T14:20:20.516Z,99919.55
2022-12-24T14:23:24.925Z,99924.98
2022-12-24T14:26:22.266Z,99932.27
2022-12-24T14:29:31.213Z,99940.14
2022-12-24T14:32:19.809Z,99947.99
2022-12-24T14:35:26.124Z,99954.56
2022-12-24T14:38:21.622Z,99961.20
2022-12-24T14:41:27.784Z,99970.84
2022-12-24T14:44:44.665Z,99981.75
2022-12-24T14:47:49.353Z,99983.70
2022-12-24T14:50:52.107Z,99984.07
2022-12-24T14:54:08.875Z,99993.97
2022-12-24T14:57:12.000Z,100000.63
2022-12-24T15:00:02.698Z,100003.40
2022-12-24T15:02:52.533Z,100000.80
2022-12-24T15:05:43.357Z,100002.78
2022-12-24T15:08:42.969Z,100006.48
2022-12-24T15:11:31.491Z,100010.55
2022-12-24T15:14:21.014Z,100013.10
2022-12-24T15:17:10.829Z,100017.86
2022-12-24T15:20:05.233Z,100018.69
2022-12-24T15:22:58.879Z,100024.27
2022-12-24T15:25:46.584Z,100029.63
2022-12-24T15:28:47.817Z,100037.13
2022-12-24T15:31:41.015Z,100036.55
2022-12-24T15:34:52.431Z,100042.26
2022-12-24T15:37:43.126Z,100043.62
2022-12-24T15:40:33.390Z,100039.13
2022-12-24T15:43:22.071Z,100044.77
2022-12-24T15:46:10.473Z,100043.09
2022-12-24T15:49:01.427Z,100046.38
2022-12-24T15:51:49.028Z,100052.48
2022-12-24T15:54:36.497Z,100060.42
2022-12-24T15:57:36.190Z,100065.84
2022-12-24T16:00:27.940Z,100067.17
2022-12-24T16:03:23.629Z,100066.96
2022-12-24T16:06:12.091Z,100074.58
2022-12-24T16:09:47.081Z,100072.17
2022-12-24T16:12:36.808Z,100076.69
2022-12-24T16:15:24.667Z,100078.13
2022-12-24T16:18:25.570Z,100082.44
2022-12-24T16:21:26.076Z,100082.66
2022-12-24T16:24:19.227Z,100083.37
2022-12-24T16:30:35.803Z,100088.11
2022-12-24T16:44:08.036Z,100112.17
2022-12-24T16:47:12.938Z,100115.64
2022-12-24T17:01:38.659Z,100114.22
2022-12-24T17:04:25.683Z,100118.94
2022-12-24T17:07:14.837Z,100123.80
2022-12-24T17:10:02.104Z,100132.89
2022-12-24T17:14:35.641Z,100143.23
2022-12-24T17:17:29.839Z,100149.14
2022-12-24T17:20:23.665Z,100148.96
2022-12-24T17:23:26.440Z,100150.21
2022-12-24T17:26:20.683Z,100148.85
2022-12-24T17:29:07.736Z,100154.77
2022-12-24T17:31:54.888Z,100154.23
2022-12-24T17:34:42.276Z,100161.19
2022-12-24T17:37:29.905Z,100161.48
2022-12-24T17:40:17.410Z,100165.84
2022-12-24T17:43:05.621Z,100168.86
2022-12-24T17:45:52.967Z,100175.02
2022-12-24T17:48:40.360Z,100177.46
2022-12-24T17:51:29.119Z,100179.92
2022-12-24T17:54:15.926Z,100180.33
2022-12-24T17:57:02.765Z,100181.38
2022-12-24T17:59:50.102Z,100182.80
2022-12-24T18:02:37.283Z,100188.84
2022-12-24T18:05:25.371Z,100193.67
2022-12-24T18:08:20.615Z,100194.40
2022-12-24T18:11:27.395Z,100199.98
2022-12-24T18:14:27.746Z,100201.40
2022-12-24T18:17:17.953Z,100206.77
2022-12-24T18:20:12.315Z,100215.77
2022-12-24T18:23:06.036Z,100219.56
2022-12-24T18:25:56.539Z,100225.17
2022-12-24T18:31:51.169Z,100226.90
2022-12-24T18:34:38.523Z,100229.56
2022-12-24T18:37:26.954Z,100234.70
2022-12-24T18:40:18.265Z,100240.92
2022-12-24T18:43:05.175Z,100239.41
2022-12-24T18:45:51.826Z,100240.54
2022-12-24T18:48:38.860Z,100248.55
2022-12-24T18:51:29.316Z,100249.56
2022-12-24T18:54:16.340Z,100251.53
2022-12-24T18:57:03.423Z,100252.83
2022-12-24T18:59:49.690Z,100255.87
2022-12-24T19:02:36.328Z,100259.99
2022-12-24T19:05:22.910Z,100265.33
2022-12-24T19:08:37.650Z,100269.45
2022-12-24T19:11:17.267Z,100261.58
2022-12-24T19:14:05.294Z,100261.39
2022-12-24T19:16:51.690Z,100266.95
2022-12-24T19:19:38.897Z,100270.14
2022-12-24T19:22:28.138Z,100272.85
2022-12-24T19:25:14.821Z,100279.83
2022-12-24T19:28:02.183Z,100289.47
2022-12-24T19:30:49.491Z,100297.23
2022-12-24T19:33:42.852Z,100300.46
2022-12-24T19:36:31.083Z,100301.91
2022-12-24T19:39:17.609Z,100302.96
2022-12-24T19:42:04.606Z,100304.34
2022-12-24T19:44:50.927Z,100304.38
2022-12-24T19:47:37.389Z,100305.48
2022-12-24T19:50:23.831Z,100303.61
2022-12-24T19:53:10.253Z,100306.38
2022-12-24T19:55:57.039Z,100305.73
2022-12-24T19:58:44.377Z,100307.71
2022-12-24T20:01:33.416Z,100309.55
2022-12-24T20:04:21.732Z,100309.47
2022-12-24T20:07:07.962Z,100309.77
2022-12-24T20:09:54.461Z,100316.29
2022-12-24T20:12:40.589Z,100316.63
2022-12-24T20:15:28.532Z,100322.67
2022-12-24T20:18:15.093Z,100331.73
2022-12-24T20:21:03.956Z,100336.85
2022-12-24T20:23:53.539Z,100342.59
2022-12-24T20:26:39.908Z,100346.60
2022-12-24T20:29:26.550Z,100348.88
2022-12-24T20:32:12.911Z,100351.02
2022-12-24T20:34:59.238Z,100351.45
2022-12-24T20:37:46.591Z,100347.16
2022-12-24T20:40:34.284Z,100343.48
2022-12-24T20:43:24.296Z,100344.11
2022-12-24T20:46:11.908Z,100346.17
2022-12-24T20:48:58.410Z,100348.53
2022-12-24T20:51:44.858Z,100352.14
2022-12-24T20:54:31.328Z,100356.19
2022-12-24T20:57:23.396Z,100354.83
2022-12-24T21:00:13.206Z,100355.39
2022-12-24T21:03:00.093Z,100357.58
2022-12-24T21:05:46.838Z,100360.63
2022-12-24T21:08:33.796Z,100364.67
2022-12-24T21:11:39.368Z,100366.78
2022-12-24T21:14:27.390Z,100370.55
2022-12-24T21:17:15.916Z,100372.26
2022-12-24T21:20:04.777Z,100379.38
2022-12-24T21:22:53.454Z,100376.80
2022-12-24T21:25:43.904Z,100376.79
2022-12-24T21:28:32.207Z,100376.79
2022-12-24T21:31:19.028Z,100377.31
2022-12-24T21:34:05.543Z,100379.40
2022-12-24T21:36:52.192Z,100383.42
2022-12-24T21:39:38.523Z,100385.05
2022-12-24T21:42:26.007Z,100384.45
2022-12-24T21:45:12.580Z,100386.65
2022-12-24T21:48:19.441Z,100387.77
2022-12-24T21:51:06.903Z,100389.84
2022-12-24T21:54:16.213Z,100389.33
2022-12-24T21:57:24.608Z,100388.89
2022-12-24T22:00:24.367Z,100390.58
2022-12-24T22:03:10.848Z,100396.52
2022-12-24T22:05:58.800Z,100394.85
2022-12-24T22:09:04.212Z,100390.85
2022-12-24T22:11:54.642Z,100390.70
2022-12-24T22:14:41.416Z,100389.11
2022-12-24T22:17:28.623Z,100390.02
2022-12-24T22:20:15.353Z,100394.70
2022-12-24T22:23:02.076Z,100394.13
2022-12-24T22:25:49.024Z,100392.50
2022-12-24T22:28:35.497Z,100389.25
2022-12-24T22:31:23.987Z,100390.25
2022-12-24T22:34:10.407Z,100392.73
2022-12-24T22:36:57.186Z,100397.08
2022-12-24T22:39:43.848Z,100402.31
2022-12-24T22:42:33.240Z,100400.73
2022-12-24T22:45:22.429Z,100402.46
2022-12-24T22:48:09.066Z,100402.98
2022-12-24T22:50:55.223Z,100406.20
2022-12-24T22:53:41.918Z,100403.36
2022-12-24T22:56:28.665Z,100399.45
2022-12-24T22:59:15.972Z,100400.37
2022-12-24T23:02:05.273Z,100403.67
2022-12-24T23:04:51.972Z,100402.48
2022-12-24T23:07:38.900Z,100403.19
2022-12-24T23:10:25.987Z,100406.77
2022-12-24T23:13:31.817Z,100408.23
2022-12-24T23:16:18.279Z,100405.77
2022-12-24T23:19:06.009Z,100405.63
2022-12-24T23:21:52.784Z,100405.77
2022-12-24T23:24:39.454Z,100400.83
2022-12-24T23:27:26.515Z,100401.48
2022-12-24T23:30:13.208Z,100401.67
2022-12-24T23:32:59.987Z,100401.61
2022-12-24T23:35:46.416Z,100401.94
2022-12-24T23:38:33.031Z,100400.26
2022-12-24T23:41:21.203Z,100403.73
2022-12-24T23:44:07.578Z,100408.09
2022-12-24T23:46:55.751Z,100407.54
2022-12-24T23:49:42.111Z,100409.74
2022-12-24T23:52:28.654Z,100416.59
2022-12-24T23:55:15.152Z,100419.25
2022-12-24T23:58:01.885Z,100420.92
